Time;durP1;ratioP1;P1;durP2;ratioP2;P2;SDS_P1;SDS_P2;PMS_P1;PMS_P2;Temp;Humidity;BMP_temperature;BMP_pressure;BME280_temperature;BME280_humidity;BME280_pressure;Samples;Min_cycle;Max_cycle;Signal;HPM_P1;HPM_P2
2023/07/20 00:02:07;;;;;;;3.53;1.95;;;;;;;;;;10368651;28;20501;-57
2023/07/20 00:07:07;;;;;;;2.63;2.08;;;;;;;;;;10359203;28;20362;-57
2023/07/20 00:12:08;;;;;;;2.97;2.15;;;;;;;;;;10366680;28;20034;-57
2023/07/20 00:17:09;;;;;;;3.65;2.20;;;;;;;;;;10366996;28;20026;-58
2023/07/20 00:22:09;;;;;;;5.70;1.83;;;;;;;;;;10366228;28;20038;-58
2023/07/20 00:27:10;;;;;;;2.15;1.60;;;;;;;;;;10366601;28;20034;-57
2023/07/20 00:32:11;;;;;;;3.95;2.10;;;;;;;;;;10366298;28;20539;-58
2023/07/20 00:37:12;;;;;;;3.28;1.83;;;;;;;;;;10356627;28;20108;-58
2023/07/20 00:42:12;;;;;;;2.75;1.77;;;;;;;;;;10367542;28;20040;-58
2023/07/20 00:47:13;;;;;;;2.17;1.90;;;;;;;;;;10366891;28;20080;-59
2023/07/20 00:52:14;;;;;;;2.08;1.85;;;;;;;;;;10366639;28;20261;-58
2023/07/20 00:57:17;;;;;;;3.67;1.73;;;;;;;;;;10363039;28;20030;-58
2023/07/20 01:02:18;;;;;;;4.68;1.65;;;;;;;;;;10337139;28;20505;-63
2023/07/20 01:07:28;;;;;;;2.35;1.45;;;;;;;;;;10360679;28;20173;-58
2023/07/20 01:12:47;;;;;;;2.08;1.33;;;;;;;;;;10365685;28;20491;-58
2023/07/20 01:17:48;;;;;;;2.17;1.58;;;;;;;;;;10374049;28;20484;-58
2023/07/20 01:23:17;;;;;;;2.88;1.90;;;;;;;;;;10365194;28;20025;-58
2023/07/20 01:28:47;;;;;;;2.40;1.77;;;;;;;;;;10372057;28;20041;-58
2023/07/20 01:33:48;;;;;;;2.45;1.80;;;;;;;;;;10336066;28;20053;-58
2023/07/20 01:38:49;;;;;;;3.08;1.70;;;;;;;;;;10357087;28;20417;-59
2023/07/20 01:43:50;;;;;;;1.90;1.48;;;;;;;;;;10354710;28;20517;-58
2023/07/20 01:48:52;;;;;;;2.53;1.77;;;;;;;;;;10348783;28;20044;-59
2023/07/20 01:53:52;;;;;;;2.20;1.42;;;;;;;;;;10371884;28;20504;-57
2023/07/20 01:58:53;;;;;;;2.75;1.88;;;;;;;;;;10357551;28;20033;-58
2023/07/20 02:03:54;;;;;;;8.13;1.88;;;;;;;;;;10352142;28;20088;-58
2023/07/20 02:08:54;;;;;;;2.28;1.42;;;;;;;;;;10365153;28;20030;-57
2023/07/20 02:13:55;;;;;;;4.18;1.85;;;;;;;;;;10363188;28;20542;-56
2023/07/20 02:18:56;;;;;;;3.95;1.63;;;;;;;;;;10359992;28;20034;-58
2023/07/20 02:23:57;;;;;;;1.85;1.75;;;;;;;;;;10378137;28;20025;-56
2023/07/20 02:28:57;;;;;;;3.60;1.90;;;;;;;;;;10374264;28;20034;-58
2023/07/20 02:33:58;;;;;;;3.10;1.70;;;;;;;;;;10371365;28;20551;-58
2023/07/20 02:38:59;;;;;;;2.95;1.70;;;;;;;;;;10365404;28;20048;-58
2023/07/20 02:44:01;;;;;;;3.10;1.65;;;;;;;;;;10370469;28;20030;-57
2023/07/20 02:49:01;;;;;;;2.03;1.48;;;;;;;;;;10363831;28;20038;-57
2023/07/20 02:54:03;;;;;;;2.20;1.90;;;;;;;;;;10364814;28;20509;-57
2023/07/20 02:59:04;;;;;;;4.40;1.67;;;;;;;;;;10371072;28;20036;-56
2023/07/20 03:04:04;;;;;;;1.65;1.40;;;;;;;;;;10371082;28;20049;-58
2023/07/20 03:09:06;;;;;;;2.38;1.70;;;;;;;;;;10370943;28;20076;-57
2023/07/20 03:14:07;;;;;;;2.08;1.40;;;;;;;;;;10371147;28;20026;-57
2023/07/20 03:19:07;;;;;;;4.13;1.63;;;;;;;;;;10369554;28;20030;-59
2023/07/20 03:24:09;;;;;;;3.05;1.60;;;;;;;;;;10375754;28;20033;-57
2023/07/20 03:29:09;;;;;;;1.63;1.33;;;;;;;;;;10368639;28;20041;-57
2023/07/20 03:34:10;;;;;;;3.88;1.70;;;;;;;;;;10368186;28;20025;-58
2023/07/20 03:39:10;;;;;;;1.80;1.50;;;;;;;;;;10369516;28;20050;-54
2023/07/20 03:44:11;;;;;;;2.35;1.45;;;;;;;;;;10360142;28;20040;-56
2023/07/20 03:49:12;;;;;;;3.13;1.63;;;;;;;;;;10361812;28;20398;-57
2023/07/20 03:54:12;;;;;;;1.50;1.30;;;;;;;;;;10354664;28;20407;-58
2023/07/20 03:59:13;;;;;;;1.70;1.40;;;;;;;;;;10368870;28;20385;-58
2023/07/20 04:04:16;;;;;;;3.38;1.95;;;;;;;;;;10368439;28;20381;-58
2023/07/20 04:09:16;;;;;;;3.00;1.80;;;;;;;;;;10368518;28;20060;-54
2023/07/20 04:14:17;;;;;;;1.33;1.20;;;;;;;;;;10368076;28;20022;-54
2023/07/20 04:19:18;;;;;;;2.80;1.70;;;;;;;;;;10368300;28;20025;-56
2023/07/20 04:24:18;;;;;;;2.78;1.50;;;;;;;;;;10364888;28;20048;-57
2023/07/20 04:29:19;;;;;;;1.77;1.40;;;;;;;;;;10357864;28;20065;-56
2023/07/20 04:34:19;;;;;;;3.08;1.67;;;;;;;;;;10363996;28;20022;-54
2023/07/20 04:39:20;;;;;;;2.22;1.60;;;;;;;;;;10359065;28;20058;-63
2023/07/20 04:44:20;;;;;;;1.50;1.40;;;;;;;;;;10367375;28;20030;-55
2023/07/20 04:49:21;;;;;;;2.08;1.60;;;;;;;;;;10357544;28;20089;-56
2023/07/20 04:54:22;;;;;;;2.20;1.52;;;;;;;;;;10363973;28;20025;-55
2023/07/20 04:59:22;;;;;;;1.30;1.20;;;;;;;;;;10364816;28;20026;-55
2023/07/20 05:04:23;;;;;;;2.10;1.50;;;;;;;;;;10361281;28;20030;-56
2023/07/20 05:09:24;;;;;;;2.63;1.38;;;;;;;;;;10363055;28;20033;-57
2023/07/20 05:14:24;;;;;;;1.50;1.40;;;;;;;;;;10364816;28;20440;-57
2023/07/20 05:19:25;;;;;;;1.77;1.60;;;;;;;;;;10365836;28;20473;-56
2023/07/20 05:24:26;;;;;;;1.73;1.63;;;;;;;;;;10371080;28;20029;-57
2023/07/20 05:29:26;;;;;;;1.88;1.27;;;;;;;;;;10379582;28;20390;-57
2023/07/20 05:34:27;;;;;;;2.28;1.67;;;;;;;;;;10360496;28;20029;-57
2023/07/20 05:39:28;;;;;;;3.55;1.40;;;;;;;;;;10367081;28;20318;-56
2023/07/20 05:44:28;;;;;;;1.80;1.50;;;;;;;;;;10363639;28;20033;-58
2023/07/20 05:49:29;;;;;;;4.82;1.52;;;;;;;;;;10366828;28;20060;-59
2023/07/20 05:54:30;;;;;;;1.70;1.58;;;;;;;;;;10368949;28;20030;-59
2023/07/20 05:59:31;;;;;;;1.58;1.40;;;;;;;;;;10370914;28;20030;-57
2023/07/20 06:04:33;;;;;;;2.63;1.42;;;;;;;;;;10371701;28;20508;-58
2023/07/20 06:09:34;;;;;;;6.20;1.92;;;;;;;;;;10373987;28;20124;-58
2023/07/20 06:14:35;;;;;;;3.20;1.73;;;;;;;;;;10372568;28;20420;-58
2023/07/20 06:19:35;;;;;;;2.10;1.50;;;;;;;;;;10372599;28;20033;-59
2023/07/20 06:24:36;;;;;;;2.53;1.73;;;;;;;;;;10382205;28;20030;-58
2023/07/20 06:29:36;;;;;;;5.18;1.80;;;;;;;;;;10370300;28;20394;-58
2023/07/20 06:34:38;;;;;;;3.38;1.70;;;;;;;;;;10372258;28;20489;-56
2023/07/20 06:39:38;;;;;;;9.93;1.60;;;;;;;;;;10369743;28;20073;-58
2023/07/20 06:44:39;;;;;;;1.88;1.30;;;;;;;;;;10370986;28;20034;-59
2023/07/20 06:49:40;;;;;;;5.22;1.60;;;;;;;;;;10367138;28;20440;-61
2023/07/20 06:54:41;;;;;;;3.08;1.77;;;;;;;;;;10371340;28;20041;-59
2023/07/20 06:59:41;;;;;;;6.13;2.03;;;;;;;;;;10344495;28;20030;-63
2023/07/20 07:04:42;;;;;;;1.60;1.50;;;;;;;;;;10369462;28;20026;-59
2023/07/20 07:09:43;;;;;;;9.82;3.35;;;;;;;;;;10369878;28;20030;-64
2023/07/20 07:14:43;;;;;;;9.55;3.38;;;;;;;;;;10369277;28;20044;-59
2023/07/20 07:19:44;;;;;;;7.55;4.00;;;;;;;;;;10368130;28;20045;-52
2023/07/20 07:24:45;;;;;;;4.75;3.55;;;;;;;;;;10376374;28;20030;-53
2023/07/20 07:29:46;;;;;;;9.00;3.50;;;;;;;;;;10369793;28;20104;-61
2023/07/20 07:34:47;;;;;;;6.35;3.50;;;;;;;;;;10369971;28;20052;-58
2023/07/20 07:39:47;;;;;;;10.23;4.43;;;;;;;;;;10369313;28;20041;-54
2023/07/20 07:44:48;;;;;;;7.93;3.58;;;;;;;;;;10366459;28;20033;-51
2023/07/20 07:49:49;;;;;;;9.23;3.70;;;;;;;;;;10351168;28;20033;-53
2023/07/20 07:54:50;;;;;;;5.15;3.25;;;;;;;;;;10369486;28;20026;-55
2023/07/20 07:59:50;;;;;;;11.13;3.50;;;;;;;;;;10368818;28;20457;-54
2023/07/20 08:04:52;;;;;;;7.95;3.80;;;;;;;;;;10355486;28;20033;-55
2023/07/20 08:09:52;;;;;;;14.20;3.67;;;;;;;;;;10351156;28;20029;-55
2023/07/20 08:14:53;;;;;;;8.98;4.00;;;;;;;;;;10341003;28;20057;-58
2023/07/20 08:19:54;;;;;;;10.40;3.53;;;;;;;;;;10367774;28;20257;-60
2023/07/20 08:24:54;;;;;;;9.85;4.28;;;;;;;;;;10374677;28;20028;-56
2023/07/20 08:29:55;;;;;;;11.85;4.20;;;;;;;;;;10361497;28;20038;-54
2023/07/20 08:34:56;;;;;;;11.45;4.63;;;;;;;;;;10355911;28;20018;-53
2023/07/20 08:39:56;;;;;;;9.82;4.00;;;;;;;;;;10359862;28;20068;-54
2023/07/20 08:44:57;;;;;;;12.85;3.88;;;;;;;;;;10341770;28;20025;-54
2023/07/20 08:50:00;;;;;;;10.77;3.85;;;;;;;;;;10358805;28;20057;-56
2023/07/20 08:55:03;;;;;;;6.22;3.33;;;;;;;;;;10367316;28;20465;-54
2023/07/20 09:00:06;;;;;;;7.32;3.50;;;;;;;;;;10367279;28;20026;-54
2023/07/20 09:05:09;;;;;;;11.88;3.83;;;;;;;;;;10354709;28;20056;-54
2023/07/20 09:10:10;;;;;;;8.60;2.95;;;;;;;;;;10366312;28;20030;-55
2023/07/20 09:15:12;;;;;;;11.23;3.25;;;;;;;;;;10342344;28;20512;-52
2023/07/20 09:20:16;;;;;;;11.23;3.70;;;;;;;;;;10364249;28;20084;-55
2023/07/20 09:25:22;;;;;;;10.07;3.60;;;;;;;;;;10362459;28;20117;-55
2023/07/20 09:30:25;;;;;;;5.43;3.10;;;;;;;;;;10352899;28;20026;-54
2023/07/20 09:35:26;;;;;;;6.35;3.55;;;;;;;;;;10362579;28;20026;-57
2023/07/20 09:40:27;;;;;;;7.05;3.70;;;;;;;;;;10353310;28;20425;-63
2023/07/20 09:45:32;;;;;;;4.68;3.15;;;;;;;;;;10365966;28;20056;-54
2023/07/20 09:50:34;;;;;;;9.30;4.15;;;;;;;;;;10343773;28;20034;-60
2023/07/20 09:55:35;;;;;;;6.40;3.50;;;;;;;;;;10366041;28;20121;-60
2023/07/20 10:00:38;;;;;;;9.25;3.38;;;;;;;;;;10365461;28;20370;-63
2023/07/20 10:05:43;;;;;;;12.63;3.40;;;;;;;;;;10352485;28;20057;-59
2023/07/20 10:10:44;;;;;;;6.03;2.83;;;;;;;;;;10379515;28;20078;-57
2023/07/20 10:15:54;;;;;;;6.30;3.15;;;;;;;;;;10365004;28;20036;-59
2023/07/20 10:20:56;;;;;;;6.20;3.22;;;;;;;;;;10361940;28;20186;-51
2023/07/20 10:25:58;;;;;;;4.90;3.30;;;;;;;;;;10360836;28;20169;-51
2023/07/20 10:30:59;;;;;;;5.18;2.78;;;;;;;;;;10350906;28;20034;-53
2023/07/20 10:36:08;;;;;;;3.85;2.70;;;;;;;;;;10366713;28;20480;-56
2023/07/20 10:41:39;;;;;;;6.45;3.20;;;;;;;;;;10371727;28;20084;-52
2023/07/20 10:46:39;;;;;;;4.72;2.85;;;;;;;;;;10354904;28;20459;-54
2023/07/20 10:51:47;;;;;;;6.97;3.10;;;;;;;;;;10337304;28;20030;-54
2023/07/20 10:56:48;;;;;;;7.40;3.05;;;;;;;;;;10360232;28;20550;-55
2023/07/20 11:01:50;;;;;;;4.13;2.67;;;;;;;;;;10345921;28;20037;-61
2023/07/20 11:06:56;;;;;;;7.45;2.85;;;;;;;;;;10359044;28;20402;-50
2023/07/20 11:12:11;;;;;;;3.50;2.70;;;;;;;;;;10371837;28;20181;-50
2023/07/20 11:17:14;;;;;;;5.13;2.53;;;;;;;;;;10346009;28;20084;-55
2023/07/20 11:22:17;;;;;;;3.75;2.60;;;;;;;;;;10358533;28;20066;-62
2023/07/20 11:27:22;;;;;;;6.95;2.85;;;;;;;;;;10377185;28;20440;-57
2023/07/20 11:32:24;;;;;;;3.13;2.60;;;;;;;;;;10332539;28;20064;-58
2023/07/20 11:37:24;;;;;;;4.00;2.60;;;;;;;;;;10368747;28;20501;-53
2023/07/20 11:42:25;;;;;;;3.85;2.53;;;;;;;;;;10383491;28;20025;-54
2023/07/20 11:47:29;;;;;;;9.75;2.83;;;;;;;;;;10372057;28;20061;-52
2023/07/20 11:52:31;;;;;;;6.75;2.70;;;;;;;;;;10365550;28;20032;-56
2023/07/20 11:57:31;;;;;;;7.88;3.15;;;;;;;;;;10369144;28;20042;-54
2023/07/20 12:02:32;;;;;;;7.38;2.75;;;;;;;;;;10368915;28;20030;-64
2023/07/20 12:07:36;;;;;;;14.93;3.42;;;;;;;;;;10369780;28;20037;-59
2023/07/20 12:12:42;;;;;;;5.20;2.80;;;;;;;;;;10369125;28;20041;-52
2023/07/20 12:17:48;;;;;;;10.18;3.03;;;;;;;;;;10375220;28;20030;-55
2023/07/20 12:22:49;;;;;;;4.82;2.83;;;;;;;;;;10368183;28;20038;-53
2023/07/20 12:27:49;;;;;;;10.20;3.17;;;;;;;;;;10375609;28;20445;-50
2023/07/20 12:32:50;;;;;;;3.67;2.53;;;;;;;;;;10368111;28;20077;-52
2023/07/20 12:37:51;;;;;;;8.10;3.00;;;;;;;;;;10377915;28;20392;-59
2023/07/20 12:42:52;;;;;;;9.45;2.85;;;;;;;;;;10360397;28;20417;-53
2023/07/20 12:47:52;;;;;;;13.07;3.00;;;;;;;;;;10368238;28;20038;-56
2023/07/20 12:52:53;;;;;;;19.45;3.83;;;;;;;;;;10356949;28;20097;-59
2023/07/20 12:57:54;;;;;;;11.70;3.38;;;;;;;;;;10364911;28;20037;-64
2023/07/20 13:02:55;;;;;;;7.38;2.90;;;;;;;;;;10366554;28;20033;-60
2023/07/20 13:07:55;;;;;;;6.85;2.60;;;;;;;;;;10367301;28;20037;-59
2023/07/20 13:12:56;;;;;;;6.97;2.60;;;;;;;;;;10366311;28;20536;-60
2023/07/20 13:17:56;;;;;;;6.00;2.97;;;;;;;;;;10365440;28;20049;-65
2023/07/20 13:22:57;;;;;;;7.28;2.92;;;;;;;;;;10364778;28;20037;-60
2023/07/20 13:27:58;;;;;;;6.53;2.63;;;;;;;;;;10365618;28;20022;-61
2023/07/20 13:32:58;;;;;;;5.47;2.90;;;;;;;;;;10366119;28;20034;-60
2023/07/20 13:37:59;;;;;;;18.38;3.22;;;;;;;;;;10365624;28;20178;-60
2023/07/20 13:42:59;;;;;;;63.42;5.55;;;;;;;;;;10366288;28;20034;-56
2023/07/20 13:48:00;;;;;;;23.30;4.07;;;;;;;;;;10365929;28;20033;-57
2023/07/20 13:53:02;;;;;;;23.38;3.67;;;;;;;;;;10356997;28;20026;-49
2023/07/20 13:58:03;;;;;;;15.80;3.42;;;;;;;;;;10357035;28;20371;-49
2023/07/20 14:03:03;;;;;;;14.65;3.22;;;;;;;;;;10365791;28;20030;-50
2023/07/20 14:08:05;;;;;;;19.52;3.33;;;;;;;;;;10373895;28;20033;-52
2023/07/20 14:13:05;;;;;;;9.50;2.75;;;;;;;;;;10371703;28;20080;-52
2023/07/20 14:18:06;;;;;;;9.07;2.83;;;;;;;;;;10373124;28;20075;-49
2023/07/20 14:23:06;;;;;;;9.98;3.22;;;;;;;;;;10373009;28;20034;-49
2023/07/20 14:28:08;;;;;;;10.55;2.95;;;;;;;;;;10379806;28;20025;-49
2023/07/20 14:33:08;;;;;;;5.43;2.38;;;;;;;;;;10372793;28;20053;-48
2023/07/20 14:38:09;;;;;;;6.40;2.40;;;;;;;;;;10372393;28;20041;-50
2023/07/20 14:43:10;;;;;;;9.18;2.70;;;;;;;;;;10372247;28;20052;-50
2023/07/20 14:48:11;;;;;;;11.82;2.78;;;;;;;;;;10372195;28;20385;-49
2023/07/20 14:53:13;;;;;;;8.50;2.97;;;;;;;;;;10361102;28;20033;-49
2023/07/20 14:58:14;;;;;;;6.47;3.20;;;;;;;;;;10371689;28;20022;-48
2023/07/20 15:03:14;;;;;;;5.45;2.65;;;;;;;;;;10376947;28;20524;-50
2023/07/20 15:08:15;;;;;;;13.50;2.90;;;;;;;;;;10376798;28;20034;-50
2023/07/20 15:13:15;;;;;;;11.13;3.17;;;;;;;;;;10370841;28;20026;-50
2023/07/20 15:18:16;;;;;;;7.95;2.60;;;;;;;;;;10370922;28;20588;-50
2023/07/20 15:23:16;;;;;;;8.98;2.45;;;;;;;;;;10370481;28;20022;-51
2023/07/20 15:28:17;;;;;;;4.95;2.60;;;;;;;;;;10375794;28;20034;-48
2023/07/20 15:33:17;;;;;;;7.30;2.63;;;;;;;;;;10370046;28;20033;-53
2023/07/20 15:38:18;;;;;;;5.03;2.40;;;;;;;;;;10370121;28;20057;-59
2023/07/20 15:43:19;;;;;;;6.07;2.53;;;;;;;;;;10374035;28;20186;-50
2023/07/20 15:48:20;;;;;;;8.32;2.67;;;;;;;;;;10361248;28;20033;-51
2023/07/20 15:53:20;;;;;;;11.75;2.90;;;;;;;;;;10357004;28;20038;-48
2023/07/20 15:58:21;;;;;;;4.32;2.28;;;;;;;;;;10369476;28;20033;-52
2023/07/20 16:03:24;;;;;;;6.78;2.35;;;;;;;;;;10356056;28;20026;-51
2023/07/20 16:08:25;;;;;;;7.68;2.65;;;;;;;;;;10355196;28;20038;-53
2023/07/20 16:13:26;;;;;;;8.82;2.78;;;;;;;;;;10368560;28;20053;-50
2023/07/20 16:18:27;;;;;;;3.60;2.30;;;;;;;;;;10368341;28;20535;-51
2023/07/20 16:23:28;;;;;;;6.72;2.60;;;;;;;;;;10370277;28;20017;-54
2023/07/20 16:28:29;;;;;;;4.78;2.20;;;;;;;;;;10345597;28;20381;-49
2023/07/20 16:33:29;;;;;;;6.35;2.63;;;;;;;;;;10361680;28;20030;-50
2023/07/20 16:38:30;;;;;;;3.67;2.45;;;;;;;;;;10365136;28;20046;-50
2023/07/20 16:43:30;;;;;;;4.72;2.20;;;;;;;;;;10366245;28;20037;-51
2023/07/20 16:48:31;;;;;;;6.13;2.38;;;;;;;;;;10366975;28;20331;-51
2023/07/20 16:53:32;;;;;;;5.93;2.55;;;;;;;;;;10353222;28;20084;-52
2023/07/20 16:58:34;;;;;;;2.83;2.08;;;;;;;;;;10353898;28;20416;-53
2023/07/20 17:03:35;;;;;;;5.80;2.28;;;;;;;;;;10353881;28;20054;-50
2023/07/20 17:08:36;;;;;;;4.13;2.08;;;;;;;;;;10363822;28;20514;-52
2023/07/20 17:13:37;;;;;;;5.03;2.83;;;;;;;;;;10365945;28;20034;-54
2023/07/20 17:18:38;;;;;;;4.88;2.17;;;;;;;;;;10362036;28;20033;-51
2023/07/20 17:23:38;;;;;;;4.88;2.45;;;;;;;;;;10377720;28;20029;-52
2023/07/20 17:28:39;;;;;;;4.35;2.58;;;;;;;;;;10365571;28;20024;-58
2023/07/20 17:33:40;;;;;;;4.97;2.63;;;;;;;;;;10365773;28;20026;-51
2023/07/20 17:38:40;;;;;;;6.25;2.55;;;;;;;;;;10364428;28;20489;-54
2023/07/20 17:43:41;;;;;;;7.78;2.40;;;;;;;;;;10365405;28;20048;-55
2023/07/20 17:48:42;;;;;;;7.57;2.67;;;;;;;;;;10370679;28;20054;-56
2023/07/20 17:53:43;;;;;;;5.45;2.63;;;;;;;;;;10371952;28;20030;-56
2023/07/20 17:58:44;;;;;;;3.95;2.33;;;;;;;;;;10373165;28;20365;-57
2023/07/20 18:03:44;;;;;;;3.78;2.17;;;;;;;;;;10373489;28;20025;-54
2023/07/20 18:08:45;;;;;;;5.88;2.63;;;;;;;;;;10371918;28;20037;-53
2023/07/20 18:13:45;;;;;;;9.45;3.47;;;;;;;;;;10371023;28;20034;-52
2023/07/20 18:18:46;;;;;;;8.20;2.70;;;;;;;;;;10370895;28;20030;-52
2023/07/20 18:23:47;;;;;;;3.83;2.45;;;;;;;;;;10386344;28;20416;-49
2023/07/20 18:28:47;;;;;;;3.63;2.40;;;;;;;;;;10369543;28;20029;-53
2023/07/20 18:33:48;;;;;;;6.80;2.33;;;;;;;;;;10372066;28;20469;-52
2023/07/20 18:38:49;;;;;;;5.53;2.63;;;;;;;;;;10375977;28;20485;-51
2023/07/20 18:43:49;;;;;;;10.20;3.05;;;;;;;;;;10370928;28;20038;-55
2023/07/20 18:48:50;;;;;;;4.72;2.40;;;;;;;;;;10373450;28;20109;-54
2023/07/20 18:53:53;;;;;;;3.38;2.42;;;;;;;;;;10350499;28;20087;-53
2023/07/20 18:58:53;;;;;;;9.85;2.95;;;;;;;;;;10370055;28;20022;-52
2023/07/20 19:03:55;;;;;;;11.05;3.22;;;;;;;;;;10370136;28;20488;-54
2023/07/20 19:08:56;;;;;;;5.05;2.67;;;;;;;;;;10365429;28;20034;-61
2023/07/20 19:13:56;;;;;;;6.65;2.45;;;;;;;;;;10371613;28;20482;-54
2023/07/20 19:18:57;;;;;;;5.50;2.90;;;;;;;;;;10373415;28;20032;-53
2023/07/20 19:23:58;;;;;;;5.05;2.58;;;;;;;;;;10368421;28;20485;-54
2023/07/20 19:28:58;;;;;;;10.82;2.88;;;;;;;;;;10369525;28;20454;-53
2023/07/20 19:33:59;;;;;;;7.70;3.40;;;;;;;;;;10369869;28;20026;-52
2023/07/20 19:39:00;;;;;;;5.95;2.80;;;;;;;;;;10369776;28;20046;-56
2023/07/20 19:44:01;;;;;;;5.70;3.42;;;;;;;;;;10372879;28;20064;-55
2023/07/20 19:49:01;;;;;;;5.78;3.58;;;;;;;;;;10363489;28;20034;-56
2023/07/20 19:54:02;;;;;;;5.85;3.90;;;;;;;;;;10364960;28;20072;-53
2023/07/20 19:59:04;;;;;;;8.10;3.67;;;;;;;;;;10366909;28;20053;-56
2023/07/20 20:04:04;;;;;;;8.65;3.53;;;;;;;;;;10362066;28;20030;-49
2023/07/20 20:09:05;;;;;;;9.68;3.63;;;;;;;;;;10361828;28;20532;-58
2023/07/20 20:14:05;;;;;;;26.13;4.53;;;;;;;;;;10364375;28;21351;-55
2023/07/20 20:19:10;;;;;;;15.88;4.32;;;;;;;;;;10339141;28;20489;-49
2023/07/20 20:24:10;;;;;;;16.17;4.28;;;;;;;;;;10351194;28;20129;-54
2023/07/20 20:29:11;;;;;;;19.20;4.20;;;;;;;;;;10348748;28;20477;-50
2023/07/20 20:34:12;;;;;;;7.68;3.70;;;;;;;;;;10361746;28;20026;-51
2023/07/20 20:39:12;;;;;;;8.30;3.47;;;;;;;;;;10347474;28;20053;-57
2023/07/20 20:44:21;;;;;;;12.25;3.78;;;;;;;;;;10358939;28;20499;-59
2023/07/20 20:49:22;;;;;;;16.10;3.60;;;;;;;;;;10350014;28;20034;-52
2023/07/20 20:54:23;;;;;;;12.55;3.47;;;;;;;;;;10350747;28;20037;-56
2023/07/20 20:59:23;;;;;;;18.70;3.60;;;;;;;;;;10337889;28;20030;-58
2023/07/20 21:04:24;;;;;;;10.43;3.03;;;;;;;;;;10350743;28;20030;-50
2023/07/20 21:09:26;;;;;;;9.73;3.58;;;;;;;;;;10343559;28;20034;-50
2023/07/20 21:14:26;;;;;;;11.82;3.40;;;;;;;;;;10339965;28;20063;-54
2023/07/20 21:19:27;;;;;;;11.60;3.20;;;;;;;;;;10356049;28;20025;-51
2023/07/20 21:24:28;;;;;;;19.20;3.00;;;;;;;;;;10353239;28;20045;-54
2023/07/20 21:29:29;;;;;;;12.43;3.45;;;;;;;;;;10367078;23;20501;-57
2023/07/20 21:34:29;;;;;;;13.70;3.25;;;;;;;;;;10330885;28;20931;-55
2023/07/20 21:39:30;;;;;;;14.23;2.80;;;;;;;;;;10308800;28;20026;-56
2023/07/20 21:44:31;;;;;;;7.60;3.10;;;;;;;;;;10284012;28;20046;-53
2023/07/20 21:49:32;;;;;;;5.93;2.80;;;;;;;;;;10283752;28;20042;-57
2023/07/20 21:54:33;;;;;;;13.48;3.42;;;;;;;;;;10280828;28;20115;-57
2023/07/20 21:59:33;;;;;;;15.85;3.30;;;;;;;;;;10282548;28;20042;-57
2023/07/20 22:04:34;;;;;;;10.98;3.00;;;;;;;;;;10282499;28;20038;-57
2023/07/20 22:09:35;;;;;;;7.15;2.90;;;;;;;;;;10282891;28;20030;-56
2023/07/20 22:14:38;;;;;;;8.55;2.92;;;;;;;;;;10282734;28;20089;-56
2023/07/20 22:19:38;;;;;;;9.90;2.75;;;;;;;;;;10281966;28;20062;-57
2023/07/20 22:24:39;;;;;;;7.82;2.90;;;;;;;;;;10291195;28;20501;-57
2023/07/20 22:29:39;;;;;;;11.10;3.03;;;;;;;;;;10283871;28;20046;-57
2023/07/20 22:34:40;;;;;;;7.00;2.63;;;;;;;;;;10289966;28;20447;-55
2023/07/20 22:39:41;;;;;;;5.47;2.10;;;;;;;;;;10291090;28;20026;-56
2023/07/20 22:44:41;;;;;;;8.57;2.63;;;;;;;;;;10290416;28;20031;-56
2023/07/20 22:49:42;;;;;;;6.22;2.70;;;;;;;;;;10289379;28;20054;-55
2023/07/20 22:54:43;;;;;;;9.35;2.47;;;;;;;;;;10289187;28;20038;-56
2023/07/20 22:59:44;;;;;;;9.48;2.53;;;;;;;;;;10289084;28;20046;-56
2023/07/20 23:04:45;;;;;;;5.10;2.60;;;;;;;;;;10289008;28;20125;-56
2023/07/20 23:09:46;;;;;;;6.07;2.25;;;;;;;;;;10288842;28;20027;-56
2023/07/20 23:14:46;;;;;;;4.20;2.15;;;;;;;;;;10287676;28;20022;-56
2023/07/20 23:19:47;;;;;;;5.90;2.35;;;;;;;;;;10287445;28;20034;-56
2023/07/20 23:24:49;;;;;;;6.07;2.78;;;;;;;;;;10282622;28;20067;-56
2023/07/20 23:29:49;;;;;;;3.33;2.15;;;;;;;;;;10287081;28;20047;-56
2023/07/20 23:34:50;;;;;;;5.97;2.65;;;;;;;;;;10286889;28;20470;-56
2023/07/20 23:39:52;;;;;;;4.05;2.30;;;;;;;;;;10288574;28;20359;-56
2023/07/20 23:44:53;;;;;;;4.35;2.28;;;;;;;;;;10286962;28;20370;-55
2023/07/20 23:49:53;;;;;;;4.78;2.60;;;;;;;;;;10287949;28;20093;-54
2023/07/20 23:54:54;;;;;;;5.07;2.03;;;;;;;;;;10285592;28;20031;-55
2023/07/20 23:59:54;;;;;;;3.55;2.05;;;;;;;;;;10285324;28;20044;-54
